createdAt,value
2018-08-17T00:01:26.895Z,79.57
2018-08-17T00:03:55.779Z,78.99
2018-08-17T00:06:25.268Z,79.05
2018-08-17T00:08:54.300Z,79.15
2018-08-17T00:11:23.022Z,78.54
2018-08-17T00:13:51.910Z,78.51
2018-08-17T00:16:20.631Z,78.27
2018-08-17T00:18:49.335Z,78.21
2018-08-17T00:21:18.631Z,78.01
2018-08-17T00:23:47.300Z,78.25
2018-08-17T00:26:15.970Z,78.42
2018-08-17T00:28:45.272Z,77.98
2018-08-17T00:31:13.909Z,78.07
2018-08-17T00:33:43.155Z,77.75
2018-08-17T00:36:11.888Z,77.59
2018-08-17T00:38:40.668Z,77.25
2018-08-17T00:41:09.452Z,76.69
2018-08-17T00:43:38.119Z,76.51
2018-08-17T00:46:07.899Z,76.72
2018-08-17T00:48:37.471Z,77.24
2018-08-17T00:51:06.752Z,77.75
2018-08-17T00:53:35.526Z,77.93
2018-08-17T00:56:04.209Z,78.26
2018-08-17T00:58:33.089Z,78.11
2018-08-17T01:01:01.867Z,78.20
2018-08-17T01:03:30.968Z,78.20
2018-08-17T01:06:00.169Z,78.13
2018-08-17T01:08:28.867Z,78.12
2018-08-17T01:10:57.759Z,77.66
2018-08-17T01:13:26.470Z,77.53
2018-08-17T01:15:55.275Z,77.38
2018-08-17T01:18:24.047Z,77.23
2018-08-17T01:20:52.691Z,77.02
2018-08-17T01:23:21.387Z,77.47
2018-08-17T01:25:50.088Z,77.25
2018-08-17T01:28:18.779Z,77.42
2018-08-17T01:30:47.479Z,77.28
2018-08-17T01:33:16.855Z,77.42
2018-08-17T01:35:45.543Z,77.53
2018-08-17T01:38:14.177Z,77.17
2018-08-17T01:40:43.728Z,77.39
2018-08-17T01:43:12.961Z,77.21
2018-08-17T01:45:41.626Z,77.19
2018-08-17T01:48:10.993Z,77.64
2018-08-17T01:50:40.784Z,77.81
2018-08-17T01:53:09.663Z,77.78
2018-08-17T01:55:39.028Z,77.78
2018-08-17T01:58:07.919Z,77.83
2018-08-17T02:00:37.748Z,77.58
2018-08-17T02:03:06.559Z,77.58
2018-08-17T02:05:35.351Z,77.50
2018-08-17T02:08:04.933Z,77.74
2018-08-17T02:10:34.472Z,77.53
2018-08-17T02:13:03.991Z,77.58
2018-08-17T02:15:33.755Z,77.57
2018-08-17T02:18:02.567Z,77.69
2018-08-17T02:20:31.267Z,77.73
2018-08-17T02:23:00.359Z,78.07
2018-08-17T02:25:29.101Z,77.96
2018-08-17T02:27:57.922Z,77.82
2018-08-17T02:30:27.227Z,78.17
2018-08-17T02:32:56.553Z,77.85
2018-08-17T02:35:25.549Z,78.30
2018-08-17T02:37:55.107Z,78.12
2018-08-17T02:40:23.817Z,78.21
2018-08-17T02:42:52.679Z,78.39
2018-08-17T02:45:22.049Z,78.51
2018-08-17T02:47:50.980Z,78.88
2018-08-17T02:50:19.680Z,78.56
2018-08-17T02:52:49.218Z,78.83
2018-08-17T02:55:18.117Z,78.92
2018-08-17T02:57:47.116Z,79.03
2018-08-17T03:00:15.740Z,79.13
2018-08-17T03:02:44.369Z,79.56
2018-08-17T03:05:13.881Z,79.56
2018-08-17T03:07:43.204Z,79.79
2018-08-17T03:10:13.047Z,79.92
2018-08-17T03:12:42.592Z,79.96
2018-08-17T03:15:11.905Z,79.98
2018-08-17T03:17:40.616Z,80.00
2018-08-17T03:20:09.675Z,79.92
2018-08-17T03:22:38.420Z,80.06
2018-08-17T03:25:07.739Z,80.16
2018-08-17T03:27:37.051Z,79.96
2018-08-17T03:30:06.251Z,79.96
2018-08-17T03:32:34.923Z,79.88
2018-08-17T03:35:04.388Z,79.92
2018-08-17T03:37:33.818Z,80.01
2018-08-17T03:40:03.636Z,79.88
2018-08-17T03:42:33.101Z,79.98
2018-08-17T03:45:02.372Z,80.06
2018-08-17T03:47:31.259Z,79.92
2018-08-17T03:49:59.911Z,80.17
2018-08-17T03:52:28.644Z,79.86
2018-08-17T03:54:57.301Z,79.98
2018-08-17T03:57:26.033Z,79.97
2018-08-17T03:59:55.292Z,79.85
2018-08-17T04:02:23.995Z,79.80
2018-08-17T04:04:52.792Z,79.79
2018-08-17T04:07:22.484Z,79.77
2018-08-17T04:09:51.107Z,79.76
2018-08-17T04:12:19.936Z,80.17
2018-08-17T04:14:48.984Z,79.66
2018-08-17T04:17:17.821Z,80.09
2018-08-17T04:19:46.552Z,79.97
2018-08-17T04:22:15.893Z,79.98
2018-08-17T04:24:44.776Z,80.16
2018-08-17T04:27:13.537Z,80.13
2018-08-17T04:29:42.159Z,80.24
2018-08-17T04:32:11.635Z,80.11
2018-08-17T04:34:40.312Z,80.37
2018-08-17T04:37:09.156Z,80.95
2018-08-17T04:39:37.858Z,80.68
2018-08-17T04:42:06.512Z,80.72
2018-08-17T04:44:35.102Z,80.72
2018-08-17T04:47:03.848Z,80.96
2018-08-17T04:49:33.836Z,81.07
2018-08-17T04:52:02.608Z,81.01
2018-08-17T04:54:31.339Z,81.53
2018-08-17T04:56:59.992Z,81.46
2018-08-17T04:59:28.707Z,81.56
2018-08-17T05:01:57.351Z,81.46
2018-08-17T05:04:26.159Z,81.49
2018-08-17T05:06:54.863Z,81.59
2018-08-17T05:09:23.459Z,81.43
2018-08-17T05:11:52.148Z,81.58
2018-08-17T05:14:21.344Z,81.77
2018-08-17T05:16:50.222Z,82.07
2018-08-17T05:19:18.947Z,81.93
2018-08-17T05:21:47.576Z,82.07
2018-08-17T05:24:16.860Z,82.04
2018-08-17T05:26:46.087Z,81.83
2018-08-17T05:29:14.763Z,81.73
2018-08-17T05:31:43.476Z,81.92
2018-08-17T05:34:12.972Z,81.27
2018-08-17T05:36:41.675Z,81.53
2018-08-17T05:39:10.929Z,81.38
2018-08-17T05:41:39.619Z,81.33
2018-08-17T05:44:08.271Z,81.29
2018-08-17T05:46:38.284Z,81.14
2018-08-17T05:49:07.804Z,81.11
2018-08-17T05:51:37.689Z,80.94
2018-08-17T05:54:06.936Z,80.54
2018-08-17T05:56:35.610Z,80.55
2018-08-17T05:59:04.455Z,80.11
2018-08-17T06:01:33.152Z,79.81
2018-08-17T06:04:01.773Z,80.11
2018-08-17T06:06:30.393Z,79.88
2018-08-17T06:08:59.010Z,79.67
2018-08-17T06:11:27.833Z,79.29
2018-08-17T06:13:56.452Z,78.86
2018-08-17T06:16:25.175Z,78.60
2018-08-17T06:18:54.438Z,78.44
2018-08-17T06:21:23.166Z,77.97
2018-08-17T06:23:51.887Z,78.24
2018-08-17T06:26:20.524Z,77.91
2018-08-17T06:28:49.472Z,77.36
2018-08-17T06:31:18.934Z,78.17
2018-08-17T06:33:47.825Z,77.86
2018-08-17T06:36:17.415Z,77.85
2018-08-17T06:38:46.556Z,78.38
2018-08-17T06:41:15.269Z,78.20
2018-08-17T06:43:45.048Z,78.09
2018-08-17T06:46:13.915Z,78.42
2018-08-17T06:48:43.294Z,78.29
2018-08-17T06:51:12.456Z,78.21
2018-08-17T06:53:41.635Z,77.69
2018-08-17T06:56:11.618Z,76.83
2018-08-17T06:58:40.420Z,75.84
2018-08-17T07:01:09.120Z,75.20
2018-08-17T07:03:37.912Z,75.06
2018-08-17T07:06:06.700Z,74.95
2018-08-17T07:08:35.441Z,75.09
2018-08-17T07:11:04.812Z,74.34
2018-08-17T07:13:33.456Z,73.76
2018-08-17T07:16:02.084Z,73.43
2018-08-17T07:18:31.231Z,73.28
2018-08-17T07:20:59.911Z,73.53
2018-08-17T07:23:28.881Z,73.07
2018-08-17T07:25:57.751Z,72.52
2018-08-17T07:28:26.471Z,72.00
2018-08-17T07:30:55.163Z,71.56
2018-08-17T07:33:23.843Z,71.47
2018-08-17T07:35:53.300Z,71.65
2018-08-17T07:38:23.510Z,71.75
2018-08-17T07:40:52.729Z,71.72
2018-08-17T07:43:21.485Z,72.04
2018-08-17T07:45:50.113Z,72.08
2018-08-17T07:48:18.951Z,71.89
2018-08-17T07:50:48.884Z,70.92
2018-08-17T07:53:17.517Z,70.55
2018-08-17T07:55:46.978Z,69.85
2018-08-17T07:58:15.872Z,69.50
2018-08-17T08:00:44.562Z,69.28
2018-08-17T08:03:13.408Z,69.05
2018-08-17T08:05:42.100Z,68.84
2018-08-17T08:08:10.743Z,68.82
2018-08-17T08:10:39.476Z,67.51
2018-08-17T08:13:08.249Z,67.01
2018-08-17T08:15:37.084Z,66.82
2018-08-17T08:18:05.830Z,66.99
2018-08-17T08:20:36.818Z,66.84
2018-08-17T08:23:17.125Z,66.56
2018-08-17T08:25:46.920Z,67.05
2018-08-17T08:28:15.733Z,67.12
2018-08-17T08:30:44.428Z,66.89
2018-08-17T08:33:13.156Z,66.63
2018-08-17T08:35:41.995Z,66.53
2018-08-17T08:38:10.623Z,66.34
2018-08-17T08:40:39.275Z,66.33
2018-08-17T08:43:08.677Z,66.80
2018-08-17T08:45:37.677Z,67.32
2018-08-17T08:48:07.987Z,66.95
2018-08-17T08:50:37.005Z,66.20
2018-08-17T08:53:06.501Z,66.17
2018-08-17T08:55:35.905Z,65.65
2018-08-17T08:58:06.416Z,65.35
2018-08-17T09:00:35.819Z,65.25
2018-08-17T09:03:04.826Z,65.88
2018-08-17T09:05:33.652Z,66.26
2018-08-17T09:08:03.266Z,66.30
2018-08-17T09:10:33.148Z,65.96
2018-08-17T09:13:01.976Z,65.80
2018-08-17T09:15:31.643Z,66.05
2018-08-17T09:18:00.516Z,66.10
2018-08-17T09:20:30.461Z,64.39
2018-08-17T09:22:59.132Z,64.14
2018-08-17T09:25:27.920Z,63.64
2018-08-17T09:27:56.711Z,64.04
2018-08-17T09:30:30.013Z,63.95
2018-08-17T09:32:59.603Z,63.51
2018-08-17T09:35:28.323Z,63.55
2018-08-17T09:37:57.008Z,61.68
2018-08-17T09:40:25.772Z,61.18
2018-08-17T09:42:54.463Z,60.93
2018-08-17T09:45:24.902Z,60.76
2018-08-17T09:47:53.598Z,61.16
2018-08-17T09:50:22.503Z,61.53
2018-08-17T09:52:51.404Z,61.80
2018-08-17T09:55:20.857Z,62.34
2018-08-17T09:57:50.176Z,62.42
2018-08-17T10:00:19.060Z,62.04
2018-08-17T10:02:53.109Z,62.29
2018-08-17T10:05:27.234Z,62.55
2018-08-17T10:08:01.735Z,62.38
2018-08-17T10:10:31.328Z,62.79
2018-08-17T10:12:59.997Z,63.71
2018-08-17T10:15:28.696Z,64.70
2018-08-17T10:17:58.551Z,64.90
2018-08-17T10:20:27.308Z,64.76
2018-08-17T10:22:56.476Z,65.25
2018-08-17T10:25:26.106Z,66.10
2018-08-17T10:27:57.125Z,66.01
2018-08-17T10:47:11.204Z,66.47
2018-08-17T10:49:39.971Z,65.23
2018-08-17T10:52:08.844Z,63.98
2018-08-17T10:54:37.484Z,63.38
2018-08-17T10:57:06.568Z,62.97
2018-08-17T10:59:35.338Z,62.99
2018-08-17T11:02:04.048Z,62.92
2018-08-17T11:04:32.941Z,62.17
2018-08-17T11:07:01.611Z,61.14
2018-08-17T11:09:30.411Z,60.31
2018-08-17T11:11:59.200Z,59.80
2018-08-17T11:14:28.776Z,60.74
2018-08-17T11:16:57.943Z,61.33
2018-08-17T11:19:26.557Z,61.35
2018-08-17T11:21:55.180Z,61.46
2018-08-17T11:24:23.966Z,60.53
2018-08-17T11:26:52.734Z,60.38
2018-08-17T11:29:21.475Z,60.58
2018-08-17T11:31:52.766Z,60.32
2018-08-17T11:34:21.625Z,60.93
2018-08-17T11:36:50.382Z,61.99
2018-08-17T11:39:20.016Z,63.71
2018-08-17T11:41:48.767Z,63.44
2018-08-17T11:44:18.788Z,63.10
2018-08-17T11:46:48.291Z,62.36
2018-08-17T11:49:18.223Z,61.75
2018-08-17T11:51:47.067Z,60.45
2018-08-17T11:54:15.977Z,60.16
2018-08-17T11:56:45.208Z,59.43
2018-08-17T11:59:14.482Z,59.06
2018-08-17T12:01:43.227Z,59.44
2018-08-17T12:04:12.531Z,59.26
2018-08-17T12:06:41.367Z,58.97
2018-08-17T12:09:10.004Z,59.43
2018-08-17T12:11:38.869Z,59.61
2018-08-17T12:14:08.403Z,60.29
2018-08-17T12:16:37.035Z,60.03
2018-08-17T12:19:06.070Z,60.48
2018-08-17T12:21:35.273Z,60.82
2018-08-17T12:24:04.199Z,60.22
2018-08-17T12:26:38.789Z,60.01
2018-08-17T12:29:07.735Z,60.24
2018-08-17T12:31:36.516Z,60.09
2018-08-17T12:34:06.032Z,60.39
2018-08-17T12:36:35.160Z,60.61
2018-08-17T12:39:04.522Z,60.86
2018-08-17T12:41:33.959Z,61.63
2018-08-17T12:44:02.772Z,61.66
2018-08-17T12:46:31.586Z,62.11
2018-08-17T12:49:00.192Z,62.59
2018-08-17T12:51:28.988Z,62.28
2018-08-17T12:53:57.744Z,62.68
2018-08-17T12:56:26.963Z,62.33
2018-08-17T12:58:55.663Z,62.48
2018-08-17T13:01:24.881Z,62.37
2018-08-17T13:03:53.675Z,62.80
2018-08-17T13:06:22.335Z,63.83
2018-08-17T13:08:51.023Z,63.37
2018-08-17T13:11:19.655Z,64.05
2018-08-17T13:13:48.412Z,64.00
2018-08-17T13:16:17.835Z,64.63
2018-08-17T13:18:46.460Z,65.87
2018-08-17T13:21:15.205Z,67.44
2018-08-17T13:23:44.571Z,67.66
2018-08-17T13:26:13.473Z,68.23
2018-08-17T13:28:42.144Z,69.54
2018-08-17T13:31:10.943Z,71.13
2018-08-17T13:33:39.630Z,71.11
2018-08-17T13:36:08.999Z,71.47
2018-08-17T13:38:37.745Z,71.82
2018-08-17T13:41:07.867Z,71.88
2018-08-17T13:43:36.541Z,71.13
2018-08-17T13:46:05.164Z,70.66
2018-08-17T13:48:33.909Z,70.59
2018-08-17T13:51:03.116Z,70.64
2018-08-17T13:53:32.248Z,70.02
2018-08-17T13:56:01.175Z,69.22
2018-08-17T13:58:29.855Z,68.87
2018-08-17T14:00:58.528Z,67.86
2018-08-17T14:03:27.841Z,67.54
2018-08-17T14:05:56.499Z,67.33
2018-08-17T14:08:25.945Z,67.03
2018-08-17T14:10:54.689Z,66.76
2018-08-17T14:13:25.351Z,67.51
2018-08-17T14:15:54.719Z,67.94
2018-08-17T14:18:23.495Z,67.67
2018-08-17T14:20:52.607Z,67.78
2018-08-17T14:23:21.974Z,67.28
2018-08-17T14:25:50.692Z,67.45
2018-08-17T14:28:20.044Z,67.37
2018-08-17T14:30:49.359Z,67.70
2018-08-17T14:33:19.676Z,68.11
2018-08-17T14:35:48.404Z,68.48
2018-08-17T14:38:24.576Z,69.10
2018-08-17T14:40:53.331Z,70.13
2018-08-17T14:43:22.048Z,70.60
2018-08-17T14:45:50.800Z,71.25
2018-08-17T14:48:20.446Z,71.87
2018-08-17T14:50:50.583Z,72.15
2018-08-17T14:53:19.355Z,72.58
2018-08-17T14:55:48.995Z,72.99
2018-08-17T14:58:18.360Z,73.19
2018-08-17T15:00:48.220Z,73.51
2018-08-17T15:03:17.072Z,73.44
2018-08-17T15:05:46.374Z,72.44
2018-08-17T15:08:17.002Z,71.62
2018-08-17T15:10:46.512Z,71.29
2018-08-17T15:13:15.896Z,71.47
2018-08-17T15:15:44.877Z,71.87
2018-08-17T15:18:13.599Z,71.38
2018-08-17T15:20:42.216Z,71.37
2018-08-17T15:23:11.539Z,71.48
2018-08-17T15:25:40.174Z,71.66
2018-08-17T15:28:09.522Z,71.13
2018-08-17T15:30:39.035Z,71.11
2018-08-17T15:33:07.775Z,71.13
2018-08-17T15:35:37.159Z,71.93
2018-08-17T15:38:05.840Z,72.28
2018-08-17T15:40:34.707Z,72.53
2018-08-17T15:43:10.320Z,72.71
2018-08-17T15:45:39.080Z,72.74
2018-08-17T15:48:08.387Z,73.22
2018-08-17T15:50:38.556Z,73.35
2018-08-17T15:53:07.491Z,73.18
2018-08-17T15:55:36.239Z,73.30
2018-08-17T15:58:05.637Z,73.86
2018-08-17T16:00:34.493Z,74.31
2018-08-17T16:03:03.214Z,74.47
2018-08-17T16:05:31.940Z,75.20
2018-08-17T16:08:00.740Z,75.65
2018-08-17T16:10:29.669Z,75.69
2018-08-17T16:12:58.235Z,76.59
2018-08-17T16:15:27.596Z,78.55
2018-08-17T16:17:56.289Z,80.67
2018-08-17T16:20:24.959Z,81.23
2018-08-17T16:22:53.629Z,82.55
2018-08-17T16:25:22.302Z,81.98
2018-08-17T16:27:50.953Z,82.08
2018-08-17T16:30:20.176Z,82.00
2018-08-17T16:32:48.837Z,82.15
2018-08-17T16:35:17.523Z,82.14
2018-08-17T16:37:47.480Z,82.15
2018-08-17T16:40:16.487Z,82.45
2018-08-17T16:42:45.595Z,82.68
2018-08-17T16:45:14.233Z,82.81
2018-08-17T16:47:42.865Z,82.91
2018-08-17T16:50:11.578Z,83.01
2018-08-17T16:52:41.244Z,82.95
2018-08-17T16:55:09.947Z,82.88
2018-08-17T16:57:39.029Z,82.69
2018-08-17T17:00:10.497Z,82.32
2018-08-17T17:02:39.486Z,82.18
2018-08-17T17:05:08.586Z,81.97
2018-08-17T17:07:37.293Z,81.67
2018-08-17T17:10:07.960Z,80.51
2018-08-17T17:12:36.868Z,80.05
2018-08-17T17:15:13.999Z,79.69
2018-08-17T17:17:42.808Z,79.27
2018-08-17T17:20:11.464Z,79.44
2018-08-17T17:22:40.120Z,79.55
2018-08-17T17:25:14.092Z,79.08
2018-08-17T17:27:42.763Z,79.37
2018-08-17T17:30:11.423Z,79.29
2018-08-17T17:32:40.084Z,79.16
2018-08-17T17:35:08.748Z,78.62
2018-08-17T17:37:37.586Z,77.94
2018-08-17T17:40:06.620Z,78.08
2018-08-17T17:42:35.342Z,77.81
2018-08-17T17:45:04.103Z,77.67
2018-08-17T17:47:32.792Z,77.95
2018-08-17T17:50:01.533Z,78.02
2018-08-17T18:09:13.499Z,79.37
2018-08-17T18:11:42.228Z,79.79
2018-08-17T18:14:11.016Z,79.98
2018-08-17T18:16:39.759Z,80.32
2018-08-17T18:19:08.620Z,80.37
2018-08-17T18:21:37.461Z,80.63
2018-08-17T18:24:12.702Z,80.49
2018-08-17T18:26:47.235Z,80.14
2018-08-17T18:29:16.335Z,79.62
2018-08-17T18:31:45.811Z,79.33
2018-08-17T18:34:14.985Z,79.32
2018-08-17T18:36:43.837Z,79.51
2018-08-17T18:39:14.259Z,79.49
2018-08-17T18:41:43.409Z,79.96
2018-08-17T18:44:12.758Z,79.91
2018-08-17T18:46:41.641Z,80.06
2018-08-17T18:49:11.068Z,80.63
2018-08-17T18:51:39.871Z,80.96
2018-08-17T18:54:08.557Z,81.03
2018-08-17T18:56:37.351Z,81.38
2018-08-17T19:15:53.183Z,82.81
2018-08-17T19:18:22.288Z,83.06
2018-08-17T19:20:50.979Z,83.05
2018-08-17T19:23:19.653Z,83.05
2018-08-17T19:25:48.329Z,83.37
2018-08-17T19:28:16.986Z,83.71
2018-08-17T19:30:45.652Z,83.12
2018-08-17T19:33:14.336Z,81.93
2018-08-17T19:35:45.755Z,81.84
2018-08-17T19:38:14.467Z,81.97
2018-08-17T19:40:43.122Z,82.29
2018-08-17T19:43:11.771Z,83.37
2018-08-17T19:45:40.484Z,83.30
2018-08-17T19:48:09.268Z,83.73
2018-08-17T19:50:37.925Z,83.72
2018-08-17T19:53:06.753Z,83.78
2018-08-17T19:55:35.600Z,84.48
2018-08-17T19:58:04.352Z,84.77
2018-08-17T20:00:33.000Z,85.07
2018-08-17T20:03:01.672Z,84.97
2018-08-17T20:05:30.363Z,85.35
2018-08-17T20:07:59.167Z,85.53
2018-08-17T20:10:27.978Z,85.96
2018-08-17T20:12:56.756Z,86.25
2018-08-17T20:15:25.436Z,86.39
2018-08-17T20:17:54.109Z,86.43
2018-08-17T20:20:22.749Z,86.59
2018-08-17T20:22:51.720Z,87.61
2018-08-17T20:25:20.425Z,88.11
2018-08-17T20:27:49.131Z,88.22
2018-08-17T20:30:24.575Z,88.82
2018-08-17T20:32:53.251Z,88.95
2018-08-17T20:35:21.972Z,89.18
2018-08-17T20:37:53.440Z,88.99
2018-08-17T20:40:22.312Z,89.09
2018-08-17T20:42:51.046Z,89.26
2018-08-17T20:45:20.122Z,89.20
2018-08-17T20:47:48.829Z,89.36
2018-08-17T20:50:18.728Z,89.84
2018-08-17T20:52:53.296Z,89.96
2018-08-17T20:55:21.976Z,89.86
2018-08-17T20:57:52.815Z,90.03
2018-08-17T21:00:22.253Z,89.92
2018-08-17T21:02:50.881Z,90.42
2018-08-17T21:05:19.572Z,90.61
2018-08-17T21:07:48.903Z,90.65
2018-08-17T21:10:17.640Z,90.96
2018-08-17T21:12:47.036Z,90.80
2018-08-17T21:15:16.033Z,91.03
2018-08-17T21:17:44.870Z,91.22
2018-08-17T21:20:14.364Z,91.22
2018-08-17T21:22:43.401Z,91.22
2018-08-17T21:25:12.802Z,91.53
2018-08-17T21:27:41.759Z,91.50
2018-08-17T21:30:11.611Z,91.80
2018-08-17T21:32:40.444Z,91.88
2018-08-17T21:35:10.267Z,93.02
2018-08-17T21:37:39.175Z,93.80
2018-08-17T21:40:16.691Z,94.23
2018-08-17T21:42:46.640Z,94.85
2018-08-17T21:45:15.520Z,95.29
2018-08-17T21:47:44.215Z,95.65
2018-08-17T21:50:14.650Z,96.23
2018-08-17T21:52:43.706Z,96.47
2018-08-17T21:55:12.732Z,97.00
2018-08-17T21:57:41.356Z,97.18
2018-08-17T22:00:22.341Z,97.53
2018-08-17T22:02:51.061Z,97.74
2018-08-17T22:05:25.000Z,97.89
2018-08-17T22:07:53.644Z,98.37
2018-08-17T22:10:22.452Z,98.62
2018-08-17T22:12:51.113Z,98.88
2018-08-17T22:15:19.809Z,98.85
2018-08-17T22:17:48.529Z,99.22
2018-08-17T22:20:17.280Z,99.11
2018-08-17T22:22:45.942Z,99.42
2018-08-17T22:25:16.451Z,99.86
2018-08-17T22:27:45.221Z,99.99
2018-08-17T22:30:19.033Z,99.88
2018-08-17T22:32:47.760Z,100.00
2018-08-17T22:35:16.685Z,100.00
2018-08-17T22:37:45.380Z,100.00
2018-08-17T22:40:14.032Z,100.00
2018-08-17T22:42:42.896Z,100.00
2018-08-17T22:45:11.512Z,100.00
2018-08-17T22:47:40.149Z,100.00
2018-08-17T22:50:08.828Z,100.00
2018-08-17T22:52:38.352Z,100.00
2018-08-17T22:55:09.055Z,100.00
2018-08-17T22:57:37.783Z,100.00
2018-08-17T23:00:21.160Z,100.00
2018-08-17T23:02:50.989Z,100.00
2018-08-17T23:05:22.132Z,100.00
2018-08-17T23:07:50.850Z,100.00
2018-08-17T23:10:21.676Z,100.00
2018-08-17T23:12:51.438Z,100.00
2018-08-17T23:15:20.151Z,100.00
2018-08-17T23:17:54.099Z,100.00
2018-08-17T23:20:27.907Z,100.00
2018-08-17T23:22:57.679Z,100.00
2018-08-17T23:25:26.363Z,100.00
2018-08-17T23:27:55.124Z,100.00
2018-08-17T23:30:23.799Z,100.00
2018-08-17T23:32:52.478Z,100.00
2018-08-17T23:35:21.114Z,100.00
2018-08-17T23:37:49.865Z,100.00
2018-08-17T23:40:18.573Z,100.00
2018-08-17T23:42:47.235Z,100.00
2018-08-17T23:45:17.243Z,100.00
2018-08-17T23:47:45.980Z,100.00
2018-08-17T23:50:15.455Z,100.00
2018-08-17T23:52:44.264Z,100.00
2018-08-17T23:55:14.961Z,100.00
2018-08-17T23:57:43.682Z,100.00
